Avalon, Texas
Current Conditions -  °F | °C
As of 11:55 PM on Thursday 27 Nov 2014 (Local Time) from KJWY Reporting Station
Clear Clear  
Wind Chill:   Ceiling: Unl
Heat Index:   Visibility: 10mi
Dew Point: -2°   Wind: 3mph
Humidity: 60%   Direction: 140°SE
Pressure: 30.38"   Gusts: NA
Location:  32.21°N, 96.79°W
Report Text: KJWY 280555Z AUTO 14003KT 10SM CLR 06/M02 A3038 RMK AO2 T00571016 10108 20056 401460010
Loading
Personal Weather Stations






























Interactive Weather Map New forecast layout! Learn more

10-Day Weather Forecast

Advertisements
Track Severe Weather on mobile